Hauptseite
METAR-TAF:

METAR-TAF

Flughäfen :

Tripolis, Libyen

Mitiga International Airport

Breite: 32-54N, Länge: 13-17E, Höhe: 11 m

METAR: fehlend

Zeit: 10:34 (08:34 UTC)

Prognose

Neuester Wetterbericht von vor 3 Stunden und 34 Minuten, um 05:00 UTC
Gültige Prognose vom 24 um 06 UTC bis 25 um 06 UTC
Wind 10 kt aus Ost
Sichtweite: 8000 m
Aufgelockert bewölkt in der Höhe von 3000 ft
Aufgelockert bewölkt in der Höhe von 8000 ft

TAF: HLLM 240500Z 2406/2506 09010KT 8000 SCT030 SCT080

Wetterbeobachtungen und Prognosen von mehr als 4000 Flughäfen (METAR und TAF Bericht).

Die verfügbaren Stationen werden durch gelbe und rote Markierungen auf der Karte dargestellt.

Führen Sie die Maus auf sie, um den Namen der Station zu sehen.

Darauf klicken, um die Beobachtung von Wetterbeobachtungen und Prognosen zu sehen.

Um die Karte zu ändern : klicken Sie auf den grünen Tasten mit einem schwarzen Kreuz Zum Vergrößern, auf den grünen Button mit einem Gedankenstrich zu verkleinern, oder auf die grünen Pfeile für benachbarte Karten.


METAR-TAF: